Time;durP1;ratioP1;P1;durP2;ratioP2;P2;SDS_P1;SDS_P2;PMS_P1;PMS_P2;Temp;Humidity;BMP_temperature;BMP_pressure;BME280_temperature;BME280_humidity;BME280_pressure;Samples;Min_cycle;Max_cycle;Signal;HPM_P1;HPM_P2
2022/06/09 00:00:13;;;;;;;2.20;0.50;;;;;;;16.27;100.00;99203.64;1724939;81;21033;-58
2022/06/09 00:02:42;;;;;;;6.65;0.80;;;;;;;16.34;100.00;99208.95;1725387;81;20966;-56
2022/06/09 00:05:10;;;;;;;2.75;0.60;;;;;;;16.39;100.00;99201.80;1727221;81;20990;-57
2022/06/09 00:07:36;;;;;;;2.62;0.60;;;;;;;16.42;100.00;99202.89;1729673;81;21245;-58
2022/06/09 00:10:15;;;;;;;1.55;0.60;;;;;;;16.45;100.00;99205.38;1724812;81;21050;-59
2022/06/09 00:12:41;;;;;;;1.77;0.57;;;;;;;16.49;100.00;99201.44;1725703;81;21097;-58
2022/06/09 00:15:10;;;;;;;1.00;0.60;;;;;;;16.50;100.00;99197.73;1729478;81;21070;-57
2022/06/09 00:17:37;;;;;;;6.87;1.07;;;;;;;16.52;100.00;99191.66;1708145;81;20970;-57
2022/06/09 00:20:05;;;;;;;5.00;1.30;;;;;;;16.50;100.00;99194.50;1724641;81;21777;-58
2022/06/09 00:22:31;;;;;;;3.62;1.05;;;;;;;16.48;100.00;99187.48;1729459;81;20926;-57
2022/06/09 00:24:58;;;;;;;1.67;0.70;;;;;;;16.46;100.00;99190.31;1727671;81;20946;-58
2022/06/09 00:27:25;;;;;;;4.30;1.00;;;;;;;16.45;100.00;99189.08;1729386;81;21406;-58
2022/06/09 00:29:51;;;;;;;6.00;1.15;;;;;;;16.44;100.00;99198.21;1732773;81;21493;-59
2022/06/09 00:32:17;;;;;;;7.75;0.90;;;;;;;16.43;100.00;99193.27;1729230;81;21108;-58
2022/06/09 00:34:44;;;;;;;6.95;0.90;;;;;;;16.43;100.00;99198.70;1729440;81;21294;-57
2022/06/09 00:37:11;;;;;;;7.87;1.20;;;;;;;16.40;100.00;99197.61;1726716;81;21535;-58
2022/06/09 00:39:38;;;;;;;2.85;0.82;;;;;;;16.42;100.00;99190.18;1729538;81;21448;-56
2022/06/09 00:42:05;;;;;;;12.40;1.45;;;;;;;16.41;100.00;99186.26;1733442;81;20977;-57
2022/06/09 00:44:31;;;;;;;5.17;1.00;;;;;;;16.40;100.00;99200.33;1729140;81;21094;-58
2022/06/09 00:47:21;;;;;;;1.80;0.70;;;;;;;16.38;100.00;99198.23;1731307;81;20946;-57
2022/06/09 00:50:00;;;;;;;3.37;0.90;;;;;;;16.38;100.00;99197.36;1736868;81;20911;-58
2022/06/09 00:52:28;;;;;;;1.10;0.70;;;;;;;16.36;100.00;99191.18;1727549;81;21444;-58
2022/06/09 00:54:58;;;;;;;4.40;0.57;;;;;;;16.32;100.00;99189.72;1728318;81;21457;-57
2022/06/09 00:57:34;;;;;;;0.80;0.60;;;;;;;16.30;100.00;99199.83;1725977;79;21105;-57
2022/06/09 01:00:09;;;;;;;5.40;1.00;;;;;;;16.28;100.00;99190.44;1735813;81;21117;-56
2022/06/09 01:02:36;;;;;;;2.35;0.80;;;;;;;16.28;100.00;99194.52;1733253;81;21374;-56
2022/06/09 01:05:05;;;;;;;0.70;0.60;;;;;;;16.26;100.00;99193.27;1722456;81;21474;-58
2022/06/09 01:07:36;;;;;;;0.88;0.60;;;;;;;16.28;100.00;99199.95;1725612;81;21092;-57
2022/06/09 01:10:04;;;;;;;8.80;1.20;;;;;;;16.27;100.00;99192.78;1729289;81;21594;-58
2022/06/09 01:12:36;;;;;;;3.52;1.22;;;;;;;16.26;100.00;99189.20;1729394;81;21062;-56
2022/06/09 01:15:12;;;;;;;3.33;0.70;;;;;;;16.26;100.00;99195.98;1723120;81;21072;-57
2022/06/09 01:17:57;;;;;;;2.92;1.07;;;;;;;16.22;100.00;99198.59;1724488;81;21066;-57
2022/06/09 01:20:54;;;;;;;3.45;0.62;;;;;;;16.20;100.00;99195.63;1728358;81;21523;-58
2022/06/09 01:23:58;;;;;;;3.15;0.70;;;;;;;16.19;100.00;99196.61;1728397;81;21552;-57
2022/06/09 01:27:08;;;;;;;3.60;0.70;;;;;;;16.17;100.00;99198.57;1724903;81;21630;-58
2022/06/09 01:29:46;;;;;;;1.35;0.90;;;;;;;16.13;100.00;99205.25;1692831;83;21019;-59
2022/06/09 01:32:30;;;;;;;6.87;1.05;;;;;;;16.07;100.00;99200.31;1731979;81;20989;-57
2022/06/09 01:35:22;;;;;;;6.55;0.90;;;;;;;16.01;100.00;99192.64;1733804;81;21077;-58
2022/06/09 01:37:56;;;;;;;1.60;0.70;;;;;;;15.99;100.00;99194.11;1730533;81;22579;-58
2022/06/09 01:40:23;;;;;;;;;;;;;;;16.02;100.00;99195.23;1717370;81;21113;-58
2022/06/09 01:42:52;;;;;;;1.17;0.75;;;;;;;16.01;100.00;99197.58;1732048;80;20186;-57
2022/06/09 01:45:39;;;;;;;3.37;0.80;;;;;;;16.02;100.00;99195.23;1732653;81;21070;-56
2022/06/09 01:48:09;;;;;;;1.90;0.70;;;;;;;16.04;100.00;99190.56;1721799;81;21056;-56
2022/06/09 01:51:00;;;;;;;1.37;0.82;;;;;;;16.04;100.00;99195.98;1727180;81;21468;-56
2022/06/09 01:53:32;;;;;;;1.75;0.70;;;;;;;16.00;100.00;99197.69;1725897;81;21078;-56
2022/06/09 01:56:04;;;;;;;2.15;0.70;;;;;;;15.95;100.00;99199.92;1734103;81;21689;-56
2022/06/09 01:58:36;;;;;;;1.72;0.80;;;;;;;15.93;100.00;99199.16;1734227;81;20994;-54
2022/06/09 02:01:04;;;;;;;2.57;0.90;;;;;;;15.94;100.00;99200.41;1732370;81;21050;-52
2022/06/09 02:03:34;;;;;;;2.25;0.60;;;;;;;15.95;100.00;99201.27;1735762;81;21240;-52
2022/06/09 02:06:00;;;;;;;0.98;0.80;;;;;;;15.95;100.00;99199.42;1733606;81;21053;-52
2022/06/09 02:08:31;;;;;;;0.90;0.70;;;;;;;15.97;100.00;99204.74;1728124;81;21073;-52
2022/06/09 02:11:00;;;;;;;2.42;0.70;;;;;;;15.98;100.00;99208.70;1734671;81;21559;-55
2022/06/09 02:13:33;;;;;;;1.60;0.80;;;;;;;15.98;100.00;99209.19;1736878;81;21099;-53
2022/06/09 02:16:03;;;;;;;1.20;0.70;;;;;;;16.01;100.00;99212.50;1732385;81;20969;-52
2022/06/09 02:18:34;;;;;;;1.47;0.70;;;;;;;16.06;100.00;99211.67;1734643;81;21058;-55
2022/06/09 02:21:15;;;;;;;0.78;0.70;;;;;;;16.11;100.00;99205.86;1726909;81;21026;-54
2022/06/09 02:23:42;;;;;;;2.33;0.80;;;;;;;16.16;100.00;99207.73;1740517;81;21105;-52
2022/06/09 02:26:08;;;;;;;1.10;0.70;;;;;;;16.16;100.00;99212.64;1729963;81;21054;-52
2022/06/09 02:28:35;;;;;;;0.55;0.55;;;;;;;16.13;100.00;99207.48;1735359;81;21976;-55
2022/06/09 02:31:02;;;;;;;0.85;0.70;;;;;;;16.14;100.00;99220.56;1722161;81;21034;-53
2022/06/09 02:33:29;;;;;;;0.88;0.70;;;;;;;16.19;100.00;99211.55;1732544;81;21554;-53
2022/06/09 02:35:55;;;;;;;0.93;0.60;;;;;;;16.21;100.00;99217.72;1727729;81;21065;-52
2022/06/09 02:38:22;;;;;;;2.50;0.68;;;;;;;16.23;100.00;99224.77;1729647;81;21055;-54
2022/06/09 02:40:49;;;;;;;1.47;0.70;;;;;;;16.22;100.00;99230.31;1731994;81;21476;-52
2022/06/09 02:43:16;;;;;;;1.40;0.72;;;;;;;16.26;100.00;99226.36;1732123;80;21378;-54
2022/06/09 02:45:43;;;;;;;0.70;0.70;;;;;;;16.33;100.00;99231.70;1736165;81;21554;-55
2022/06/09 02:48:12;;;;;;;1.27;0.70;;;;;;;16.39;100.00;99226.25;1738660;81;21613;-53
2022/06/09 02:50:38;;;;;;;2.37;0.65;;;;;;;16.45;100.00;99232.55;1741449;81;21068;-54
2022/06/09 02:53:06;;;;;;;3.80;0.70;;;;;;;16.47;100.00;99226.50;1733824;81;21273;-53
2022/06/09 02:55:32;;;;;;;1.30;0.80;;;;;;;16.51;100.00;99224.75;1729787;81;21279;-52
2022/06/09 02:57:59;;;;;;;1.37;0.70;;;;;;;16.51;100.00;99232.91;1726354;81;21610;-53
2022/06/09 03:00:25;;;;;;;2.35;0.80;;;;;;;16.53;100.00;99232.30;1733174;81;21642;-56
2022/06/09 03:03:02;;;;;;;1.00;0.65;;;;;;;16.56;100.00;99234.78;1726211;81;21366;-52
2022/06/09 03:05:30;;;;;;;0.70;0.70;;;;;;;16.57;100.00;99235.15;1731820;81;21116;-52
2022/06/09 03:07:57;;;;;;;2.65;0.70;;;;;;;16.59;100.00;99227.71;1730131;81;21038;-54
2022/06/09 03:10:24;;;;;;;1.40;0.80;;;;;;;16.64;100.00;99229.62;1740240;81;21042;-52
2022/06/09 03:12:52;;;;;;;2.05;0.70;;;;;;;16.71;100.00;99237.26;1726547;81;21084;-54
2022/06/09 03:15:22;;;;;;;3.10;0.72;;;;;;;16.75;100.00;99238.75;1735177;81;20945;-51
2022/06/09 03:17:51;;;;;;;1.70;0.90;;;;;;;16.78;100.00;99233.91;1727831;81;21581;-53
2022/06/09 03:20:24;;;;;;;1.12;0.70;;;;;;;16.84;100.00;99230.68;1734610;81;21492;-52
2022/06/09 03:22:51;;;;;;;0.88;0.70;;;;;;;16.88;100.00;99233.53;1730744;81;21068;-53
2022/06/09 03:25:18;;;;;;;2.40;0.68;;;;;;;16.92;100.00;99233.66;1734028;81;21104;-53
2022/06/09 03:27:46;;;;;;;0.72;0.57;;;;;;;16.98;100.00;99230.92;1730644;81;21084;-51
2022/06/09 03:30:13;;;;;;;0.70;0.62;;;;;;;17.04;100.00;99237.20;1732478;81;21148;-52
2022/06/09 03:32:40;;;;;;;1.00;0.80;;;;;;;17.09;100.00;99234.98;1730655;81;21089;-53
2022/06/09 03:35:08;;;;;;;0.80;0.80;;;;;;;17.15;100.00;99234.47;1730598;81;21073;-57
2022/06/09 03:37:35;;;;;;;1.50;0.70;;;;;;;17.21;100.00;99233.95;1732141;81;21029;-58
2022/06/09 03:40:03;;;;;;;0.90;0.70;;;;;;;17.27;100.00;99223.91;1727850;81;21427;-58
2022/06/09 03:42:30;;;;;;;0.95;0.70;;;;;;;17.36;100.00;99229.93;1736610;80;21738;-57
2022/06/09 03:44:56;;;;;;;1.90;0.68;;;;;;;17.46;100.00;99230.02;1735684;80;21443;-59
2022/06/09 03:47:22;;;;;;;4.30;0.80;;;;;;;17.56;100.00;99228.75;1737678;80;20927;-57
2022/06/09 03:49:49;;;;;;;1.12;0.75;;;;;;;17.64;100.00;99229.85;1731549;80;20941;-58
2022/06/09 03:52:16;;;;;;;3.67;0.90;;;;;;;17.74;100.00;99219.91;1741555;80;20882;-58
2022/06/09 03:54:44;;;;;;;0.95;0.90;;;;;;;17.84;100.00;99225.43;1727459;80;20883;-58
2022/06/09 03:57:11;;;;;;;1.20;0.80;;;;;;;17.94;100.00;99223.64;1729320;80;20980;-59
2022/06/09 03:59:37;;;;;;;1.00;0.88;;;;;;;18.05;100.00;99219.97;1700311;82;20879;-57
2022/06/09 04:02:04;;;;;;;2.37;0.80;;;;;;;18.15;100.00;99225.84;1677988;83;20926;-58
2022/06/09 04:04:30;;;;;;;1.10;0.88;;;;;;;18.26;100.00;99213.14;1675399;83;21074;-59
2022/06/09 04:06:58;;;;;;;4.33;0.75;;;;;;;18.35;100.00;99215.92;1677684;83;21155;-58
2022/06/09 04:09:24;;;;;;;0.70;0.68;;;;;;;18.44;100.00;99216.47;1673213;83;21045;-59
2022/06/09 04:11:51;;;;;;;1.60;0.60;;;;;;;18.55;100.00;99215.48;1678435;83;21073;-58
2022/06/09 04:14:19;;;;;;;1.15;0.90;;;;;;;18.65;100.00;99208.25;1668338;83;21064;-56
2022/06/09 04:16:46;;;;;;;0.80;0.70;;;;;;;18.76;100.00;99210.02;1673761;83;21097;-58
2022/06/09 04:19:17;;;;;;;2.05;0.82;;;;;;;18.86;100.00;99202.73;1673416;83;22229;-58
2022/06/09 04:21:44;;;;;;;1.95;0.80;;;;;;;18.98;100.00;99205.69;1678565;83;21017;-59
2022/06/09 04:24:11;;;;;;;0.78;0.60;;;;;;;19.07;100.00;99202.13;1681233;83;21080;-58
2022/06/09 04:26:39;;;;;;;1.17;0.60;;;;;;;19.17;100.00;99200.28;1680699;83;21113;-59
2022/06/09 04:29:07;;;;;;;4.33;0.80;;;;;;;19.30;100.00;99199.16;1675318;83;21080;-59
2022/06/09 04:31:35;;;;;;;2.98;0.80;;;;;;;19.41;100.00;99201.73;1674461;83;21045;-57
2022/06/09 04:34:03;;;;;;;1.00;0.68;;;;;;;19.51;100.00;99194.44;1675301;83;21053;-58
2022/06/09 04:36:30;;;;;;;1.67;0.70;;;;;;;19.62;100.00;99191.58;1677758;83;21068;-58
2022/06/09 04:38:58;;;;;;;1.40;0.60;;;;;;;19.74;100.00;99190.89;1684131;83;21353;-58
2022/06/09 04:41:25;;;;;;;1.75;0.60;;;;;;;19.85;100.00;99194.84;1673094;83;21093;-58
2022/06/09 04:43:51;;;;;;;0.70;0.55;;;;;;;19.96;100.00;99194.70;1671238;83;21148;-58
2022/06/09 04:46:21;;;;;;;2.05;0.50;;;;;;;20.06;100.00;99191.45;1701740;83;21443;-58
2022/06/09 04:48:47;;;;;;;2.35;0.50;;;;;;;20.19;100.00;99194.70;1719627;81;21085;-59
2022/06/09 04:51:19;;;;;;;0.98;0.50;;;;;;;20.30;100.00;99191.80;1719112;81;21096;-59
2022/06/09 04:53:47;;;;;;;1.42;0.50;;;;;;;20.44;100.00;99193.72;1721753;81;21607;-60
2022/06/09 04:56:15;;;;;;;0.40;0.40;;;;;;;20.55;100.00;99193.53;1724531;81;21547;-59
2022/06/09 04:58:42;;;;;;;0.60;0.40;;;;;;;20.64;100.00;99198.97;1724254;81;21141;-59
2022/06/09 05:01:28;;;;;;;0.80;0.40;;;;;;;20.78;100.00;99200.32;1720881;81;21101;-59
2022/06/09 05:03:55;;;;;;;0.50;0.35;;;;;;;20.86;100.00;99196.32;1726162;81;20998;-59
2022/06/09 05:06:23;;;;;;;0.50;0.40;;;;;;;21.00;100.00;99192.23;1718942;81;21077;-58
2022/06/09 05:08:52;;;;;;;0.93;0.30;;;;;;;21.11;100.00;99187.38;1725698;81;22506;-58
2022/06/09 05:11:20;;;;;;;1.22;0.40;;;;;;;21.23;100.00;99189.94;1735456;81;21021;-59
2022/06/09 05:13:47;;;;;;;0.50;0.40;;;;;;;21.34;100.00;99188.35;1731977;81;22480;-60
2022/06/09 05:16:14;;;;;;;0.80;0.30;;;;;;;21.47;100.00;99188.30;1724394;81;21573;-59
2022/06/09 05:18:41;;;;;;;1.50;0.40;;;;;;;21.60;100.00;99190.66;1725291;81;21564;-59
2022/06/09 05:21:08;;;;;;;43.52;1.60;;;;;;;21.72;100.00;99185.78;1721667;81;21132;-58
2022/06/09 05:23:34;;;;;;;3.17;0.70;;;;;;;21.83;100.00;99194.63;1737548;81;21077;-59
2022/06/09 05:26:02;;;;;;;4.00;0.75;;;;;;;21.97;100.00;99184.98;1718188;81;21061;-59
2022/06/09 05:28:29;;;;;;;3.75;0.60;;;;;;;22.08;100.00;99187.48;1723351;81;21552;-58
2022/06/09 05:30:56;;;;;;;3.92;0.85;;;;;;;22.18;100.00;99182.77;1724797;81;22159;-60
2022/06/09 05:33:23;;;;;;;1.00;0.60;;;;;;;22.29;100.00;99190.38;1725956;80;21504;-60
2022/06/09 05:35:49;;;;;;;0.75;0.50;;;;;;;22.40;100.00;99188.70;1684088;83;20993;-60
2022/06/09 05:47:07;;;;;;;7.80;1.20;;;;;;;22.50;100.00;99192.20;1569117;81;975042;-56
2022/06/09 06:28:30;;;;;;;0.40;0.30;;;;;;;22.50;100.00;99192.20;1491870;81;984784;-58
2022/06/09 06:30:56;;;;;;;0.60;0.30;;;;;;;22.50;100.00;99192.20;1721440;81;21423;-57
2022/06/09 06:33:24;;;;;;;4.05;0.30;;;;;;;24.48;100.00;99198.61;1726733;81;21146;-56
2022/06/09 06:35:51;;;;;;;1.75;0.28;;;;;;;24.53;100.00;99196.69;1735308;81;21049;-57
2022/06/09 06:38:18;;;;;;;20.55;0.60;;;;;;;24.60;100.00;99203.20;1719681;81;21121;-57
2022/06/09 06:40:46;;;;;;;4.60;0.30;;;;;;;24.66;100.00;99199.25;1725281;81;21053;-58
2022/06/09 06:43:12;;;;;;;0.20;0.20;;;;;;;24.73;100.00;99194.75;1726281;81;20922;-59
2022/06/09 06:45:39;;;;;;;0.60;0.40;;;;;;;24.82;100.00;99192.83;1732105;80;20958;-58
2022/06/09 06:48:06;;;;;;;1.40;0.30;;;;;;;24.89;100.00;99193.30;1733604;80;21049;-57
2022/06/09 06:50:32;;;;;;;0.62;0.28;;;;;;;24.97;100.00;99193.81;1734061;80;21473;-57
2022/06/09 06:52:59;;;;;;;1.75;0.30;;;;;;;25.04;100.00;99197.56;1737361;80;20888;-58
2022/06/09 06:58:02;;;;;;;0.78;0.20;;;;;;;25.24;100.00;99185.59;1798128;78;22482;-59
2022/06/09 07:00:29;;;;;;;0.57;0.25;;;;;;;25.31;100.00;99198.97;1772864;78;21015;-57
2022/06/09 07:02:56;;;;;;;0.40;0.23;;;;;;;25.41;100.00;99191.34;1769418;79;21170;-60
2022/06/09 07:05:23;;;;;;;0.30;0.20;;;;;;;25.51;100.00;99188.35;1769511;78;21119;-58
2022/06/09 07:07:50;;;;;;;0.35;0.30;;;;;;;25.60;100.00;99199.14;1764187;78;20946;-58
2022/06/09 07:10:16;;;;;;;0.50;0.20;;;;;;;25.67;100.00;99191.02;1764607;79;20942;-57
2022/06/09 07:12:43;;;;;;;0.20;0.20;;;;;;;25.74;100.00;99197.51;1760776;78;21089;-57
2022/06/09 07:15:12;;;;;;;0.50;0.20;;;;;;;25.82;100.00;99188.31;1764452;78;21503;-59
2022/06/09 07:17:38;;;;;;;2.37;0.23;;;;;;;25.92;100.00;99195.82;1761690;79;21344;-60
2022/06/09 07:20:06;;;;;;;2.60;0.30;;;;;;;25.99;100.00;99187.13;1768150;79;21049;-58
2022/06/09 07:22:33;;;;;;;0.50;0.20;;;;;;;26.05;100.00;99193.27;1713752;81;21047;-63
2022/06/09 07:25:00;;;;;;;1.25;0.30;;;;;;;26.14;100.00;99193.53;1716402;82;21600;-64
2022/06/09 07:27:26;;;;;;;3.92;0.20;;;;;;;26.21;100.00;99197.78;1703558;82;21152;-63
2022/06/09 07:29:53;;;;;;;1.10;0.20;;;;;;;26.27;100.00;99196.56;1704661;82;21078;-62
2022/06/09 07:32:19;;;;;;;0.50;0.17;;;;;;;26.33;100.00;99196.33;1700483;82;21064;-62
2022/06/09 07:34:48;;;;;;;4.12;0.28;;;;;;;26.39;100.00;99196.95;1734606;81;21437;-59
2022/06/09 07:37:16;;;;;;;1.20;0.20;;;;;;;26.45;100.00;99203.11;1716069;81;21543;-63
2022/06/09 07:39:43;;;;;;;0.35;0.20;;;;;;;26.52;100.00;99203.20;1730691;80;21666;-59
2022/06/09 07:42:10;;;;;;;1.17;0.20;;;;;;;26.56;100.00;99202.63;1713995;81;21502;-60
2022/06/09 07:44:36;;;;;;;0.20;0.20;;;;;;;26.63;100.00;99201.33;1702871;82;21525;-58
2022/06/09 07:47:05;;;;;;;0.28;0.20;;;;;;;26.70;100.00;99209.22;1715818;82;21070;-57
2022/06/09 07:49:33;;;;;;;0.55;0.30;;;;;;;26.78;100.00;99209.64;1696340;82;21073;-63
2022/06/09 07:52:00;;;;;;;0.20;0.20;;;;;;;26.85;100.00;99203.16;1681080;83;21125;-58
2022/06/09 07:54:26;;;;;;;4.22;0.40;;;;;;;26.92;100.00;99200.00;1707717;81;21069;-58
2022/06/09 07:56:53;;;;;;;2.05;0.20;;;;;;;27.00;100.00;99200.41;1699129;82;21201;-56
2022/06/09 07:59:21;;;;;;;0.20;0.20;;;;;;;27.09;100.00;99200.64;1701370;82;21514;-58
2022/06/09 08:01:47;;;;;;;2.02;0.20;;;;;;;27.14;100.00;99202.29;1761883;79;21053;-61
2022/06/09 08:04:15;;;;;;;1.52;0.20;;;;;;;27.18;100.00;99198.63;1757083;79;21231;-60
2022/06/09 08:06:42;;;;;;;0.60;0.20;;;;;;;27.25;100.00;99201.80;1763497;79;21085;-63
2022/06/09 08:09:10;;;;;;;0.33;0.20;;;;;;;27.30;100.00;99202.63;1756359;79;21088;-57
2022/06/09 08:11:38;;;;;;;0.17;0.17;;;;;;;27.33;100.00;99193.92;1763102;79;21022;-59
2022/06/09 08:14:05;;;;;;;2.10;0.30;;;;;;;27.37;100.00;99193.36;1757653;80;21073;-59
2022/06/09 08:16:32;;;;;;;0.20;0.20;;;;;;;27.44;100.00;99190.14;1764721;79;21756;-58
2022/06/09 08:19:01;;;;;;;0.20;0.20;;;;;;;27.53;100.00;99196.92;1760863;79;21064;-62
2022/06/09 08:21:27;;;;;;;0.20;0.20;;;;;;;27.60;100.00;99196.50;1761665;79;21042;-65
2022/06/09 08:23:54;;;;;;;0.82;0.20;;;;;;;27.61;100.00;99203.22;1758747;79;21103;-60
2022/06/09 08:26:23;;;;;;;0.28;0.20;;;;;;;27.63;100.00;99204.41;1761100;79;20950;-61
2022/06/09 08:28:49;;;;;;;2.33;0.30;;;;;;;27.65;100.00;99197.61;1758793;79;21154;-56
2022/06/09 08:31:16;;;;;;;1.80;0.30;;;;;;;27.72;100.00;99203.23;1756325;80;21093;-61
2022/06/09 08:33:43;;;;;;;0.25;0.20;;;;;;;27.82;100.00;99204.59;1759424;79;21064;-60
2022/06/09 08:36:09;;;;;;;1.47;0.28;;;;;;;27.91;100.00;99207.23;1760270;79;21042;-61
2022/06/09 08:38:36;;;;;;;1.80;0.25;;;;;;;27.98;100.00;99213.18;1760276;79;21519;-60
2022/06/09 08:41:27;;;;;;;0.40;0.20;;;;;;;28.03;100.00;99207.04;1758147;79;21142;-62
2022/06/09 08:44:35;;;;;;;0.50;0.20;;;;;;;28.02;100.00;99213.09;1759192;79;21065;-58
2022/06/09 08:47:20;;;;;;;0.25;0.25;;;;;;;28.01;100.00;99208.61;1705530;82;21608;-56
2022/06/09 08:50:04;;;;;;;0.20;0.20;;;;;;;28.04;100.00;99210.14;1758344;79;21129;-59
2022/06/09 08:52:53;;;;;;;2.40;0.30;;;;;;;28.07;100.00;99206.98;1731739;79;21132;-59
2022/06/09 08:55:37;;;;;;;0.40;0.23;;;;;;;28.11;100.00;99201.36;1760650;79;21553;-57
2022/06/09 08:58:11;;;;;;;2.05;0.20;;;;;;;28.10;100.00;99194.11;1751733;79;24938;-63
2022/06/09 09:00:43;;;;;;;0.72;0.30;;;;;;;28.10;100.00;99199.13;1752217;79;21367;-56
2022/06/09 09:05:23;;;;;;;1.65;0.30;;;;;;;28.24;100.00;99194.05;1792643;77;24014;-67
2022/06/09 09:07:54;;;;;;;0.93;0.20;;;;;;;28.27;100.00;99198.34;1763353;79;21024;-65
2022/06/09 09:10:32;;;;;;;0.30;0.20;;;;;;;28.35;100.00;99198.19;1765251;79;22219;-66
2022/06/09 09:13:48;;;;;;;1.65;0.20;;;;;;;28.42;100.00;99199.09;1771786;78;20965;-62
2022/06/09 09:16:25;;;;;;;0.47;0.20;;;;;;;28.47;100.00;99198.50;1772182;78;20907;-61
2022/06/09 09:19:09;;;;;;;0.60;0.30;;;;;;;28.52;100.00;99201.51;1772059;79;21335;-62
2022/06/09 09:22:17;;;;;;;0.23;0.20;;;;;;;28.53;100.00;99190.77;1736721;79;20899;-63
2022/06/09 09:25:10;;;;;;;0.98;0.20;;;;;;;28.58;100.00;99192.41;1768308;78;21157;-62
2022/06/09 09:27:53;;;;;;;1.65;0.35;;;;;;;28.60;100.00;99195.81;1768249;79;21060;-66
2022/06/09 09:30:36;;;;;;;3.75;0.30;;;;;;;28.62;100.00;99193.70;1773037;79;20863;-60
2022/06/09 09:33:03;;;;;;;0.25;0.20;;;;;;;28.60;100.00;99192.52;1768252;78;20861;-63
2022/06/09 09:35:40;;;;;;;0.93;0.30;;;;;;;28.61;100.00;99191.46;1768086;79;21581;-64
2022/06/09 09:38:08;;;;;;;0.40;0.20;;;;;;;28.63;100.00;99191.80;1765852;78;21809;-65
2022/06/09 09:40:45;;;;;;;0.37;0.20;;;;;;;28.66;100.00;99182.56;1762952;78;21045;-62
2022/06/09 09:43:15;;;;;;;0.78;0.20;;;;;;;28.69;100.00;99176.59;1712429;81;21163;-63
2022/06/09 09:45:48;;;;;;;1.27;0.25;;;;;;;28.72;100.00;99182.27;1734188;81;21074;-65
2022/06/09 09:48:24;;;;;;;0.20;0.20;;;;;;;28.76;100.00;99173.86;1709673;81;21229;-63
2022/06/09 09:51:06;;;;;;;1.50;0.20;;;;;;;28.80;100.00;99169.66;1741504;80;21082;-64
2022/06/09 09:53:38;;;;;;;0.30;0.20;;;;;;;28.85;100.00;99164.35;1703536;82;21161;-62
2022/06/09 09:56:22;;;;;;;1.10;0.20;;;;;;;28.91;100.00;99159.41;1702699;82;21057;-63
2022/06/09 09:58:56;;;;;;;0.20;0.20;;;;;;;28.95;100.00;99157.38;1710270;81;21081;-63
2022/06/09 10:08:35;;;;;;;1.75;0.20;;;;;;;29.02;100.00;99153.25;1694314;83;21127;-66
2022/06/09 10:09:48;;;;;;;0.33;0.20;;;;;;;29.08;100.00;99166.30;1713062;81;21451;-64
2022/06/09 10:12:30;;;;;;;0.95;0.20;;;;;;;29.09;100.00;99161.09;1688252;83;21596;-64
2022/06/09 10:15:14;;;;;;;0.40;0.20;;;;;;;29.11;100.00;99166.39;1757757;79;21045;-63
2022/06/09 10:17:51;;;;;;;2.58;0.30;;;;;;;29.12;100.00;99165.34;1752300;79;21531;-66
2022/06/09 10:21:04;;;;;;;2.08;0.20;;;;;;;29.07;100.00;99159.05;1662014;82;21055;-64
2022/06/09 10:23:57;;;;;;;3.02;0.30;;;;;;;29.00;100.00;99150.38;1751466;79;21116;-64
2022/06/09 10:26:34;;;;;;;1.80;0.30;;;;;;;28.94;100.00;99158.44;1751371;79;20911;-67
2022/06/09 10:29:28;;;;;;;0.50;0.25;;;;;;;28.90;100.00;99154.39;1749902;80;20995;-67
2022/06/09 10:32:27;;;;;;;2.70;0.25;;;;;;;28.91;100.00;99155.25;1756046;79;25499;-63
2022/06/09 10:35:18;;;;;;;0.20;0.20;;;;;;;28.95;100.00;99153.76;1750594;79;21030;-62
2022/06/09 10:37:54;;;;;;;0.50;0.30;;;;;;;29.00;100.00;99150.38;1749104;79;21096;-64
2022/06/09 10:40:29;;;;;;;2.08;0.20;;;;;;;29.03;100.00;99153.58;1666671;83;21545;-67
2022/06/09 10:43:03;;;;;;;1.35;0.25;;;;;;;29.00;100.00;99153.16;1757674;79;21070;-63
2022/06/09 10:45:41;;;;;;;0.40;0.30;;;;;;;28.92;100.00;99160.55;1753395;79;21271;-63
2022/06/09 10:57:42;;;;;;;0.30;0.23;;;;;;;28.82;100.00;99157.33;1753212;80;21061;-63
2022/06/09 11:00:19;;;;;;;1.10;0.20;;;;;;;28.78;100.00;99153.78;1753069;79;21108;-62
2022/06/09 11:02:54;;;;;;;0.20;0.20;;;;;;;28.71;100.00;99150.95;1751602;80;21374;-62
2022/06/09 11:05:26;;;;;;;0.40;0.20;;;;;;;28.63;100.00;99154.41;1747582;79;21074;-67
2022/06/09 11:08:07;;;;;;;0.37;0.20;;;;;;;28.58;100.00;99150.33;1744740;79;21568;-62
2022/06/09 11:11:03;;;;;;;0.28;0.28;;;;;;;28.58;100.00;99144.78;1742765;80;21117;-64
2022/06/09 11:14:06;;;;;;;0.85;0.30;;;;;;;28.61;100.00;99140.77;1746383;80;21256;-61
2022/06/09 11:17:03;;;;;;;0.27;0.20;;;;;;;28.65;100.00;99140.70;1750113;80;21065;-64
2022/06/09 11:19:58;;;;;;;3.05;0.30;;;;;;;28.69;100.00;99139.21;1752436;79;21324;-62
2022/06/09 11:22:45;;;;;;;1.42;0.20;;;;;;;28.68;100.00;99142.18;1745696;79;21047;-61
2022/06/09 11:25:26;;;;;;;0.30;0.28;;;;;;;28.68;100.00;99143.03;1704217;79;21063;-63
2022/06/09 11:28:30;;;;;;;0.65;0.20;;;;;;;28.66;100.00;99142.41;1748592;79;21540;-64
2022/06/09 11:31:35;;;;;;;1.55;0.30;;;;;;;28.66;100.00;99135.48;1741098;79;21065;-67
2022/06/09 11:34:38;;;;;;;1.35;0.20;;;;;;;28.73;100.00;99143.30;1748164;79;22067;-65
2022/06/09 11:37:22;;;;;;;1.45;0.20;;;;;;;28.81;100.00;99140.91;1694248;80;21166;-62
2022/06/09 11:40:23;;;;;;;1.45;0.20;;;;;;;28.88;100.00;99143.18;1744483;79;21141;-62
2022/06/09 11:43:32;;;;;;;4.92;0.40;;;;;;;28.94;100.00;99134.03;1748023;80;21244;-64
2022/06/09 11:46:02;;;;;;;0.20;0.20;;;;;;;29.02;100.00;99140.78;1745610;80;21018;-64
2022/06/09 11:48:38;;;;;;;0.68;0.20;;;;;;;29.10;100.00;99133.67;1712334;81;21044;-64
2022/06/09 11:51:04;;;;;;;0.82;0.20;;;;;;;29.18;100.00;99129.86;1681622;82;21424;-65
2022/06/09 11:53:40;;;;;;;0.20;0.20;;;;;;;29.25;100.00;99122.45;1744631;79;21096;-61
2022/06/09 11:56:40;;;;;;;0.30;0.20;;;;;;;29.32;100.00;99122.78;1744862;79;21089;-66
2022/06/09 11:59:17;;;;;;;0.62;0.23;;;;;;;29.39;100.00;99127.52;1741505;80;21094;-62
2022/06/09 12:01:51;;;;;;;1.05;0.30;;;;;;;29.46;100.00;99131.15;1745313;79;21070;-63
2022/06/09 12:04:45;;;;;;;0.23;0.20;;;;;;;29.50;100.00;99133.84;1748689;79;21876;-66
2022/06/09 12:07:52;;;;;;;1.30;0.20;;;;;;;29.51;100.00;99139.71;1707448;80;21093;-62
2022/06/09 12:11:00;;;;;;;1.65;0.30;;;;;;;29.50;100.00;99143.55;1715379;80;21251;-61
2022/06/09 12:14:10;;;;;;;0.95;0.28;;;;;;;29.45;100.00;99137.22;1742278;79;21057;-64
2022/06/09 12:16:42;;;;;;;0.40;0.40;;;;;;;29.36;100.00;99135.70;1748747;79;21106;-63
2022/06/09 12:19:20;;;;;;;0.25;0.25;;;;;;;29.18;100.00;99128.47;1693299;83;21577;-63
2022/06/09 12:21:53;;;;;;;0.30;0.28;;;;;;;29.09;100.00;99136.15;1749893;79;20924;-60
2022/06/09 12:24:30;;;;;;;0.60;0.30;;;;;;;29.06;100.00;99126.00;1741668;79;21185;-62
2022/06/09 12:27:21;;;;;;;4.37;0.37;;;;;;;29.07;100.00;99129.95;1747956;79;20855;-65
2022/06/09 12:30:02;;;;;;;0.42;0.30;;;;;;;29.12;100.00;99134.86;1742635;80;21002;-63
2022/06/09 12:32:40;;;;;;;1.85;0.30;;;;;;;29.15;100.00;99120.59;1745422;79;20911;-66
2022/06/09 12:35:24;;;;;;;2.40;0.30;;;;;;;29.19;100.00;99119.95;1738195;80;21453;-64
2022/06/09 12:37:59;;;;;;;0.30;0.30;;;;;;;29.24;100.00;99117.96;1748860;79;21482;-63
2022/06/09 12:40:40;;;;;;;1.80;0.25;;;;;;;29.32;100.00;99124.70;1723634;80;20896;-65
2022/06/09 12:43:20;;;;;;;4.35;0.33;;;;;;;29.38;100.00;99125.80;1740847;80;21382;-63
2022/06/09 12:46:04;;;;;;;4.35;0.40;;;;;;;29.39;100.00;99117.81;1750474;80;21027;-63
2022/06/09 12:48:33;;;;;;;0.50;0.30;;;;;;;29.39;100.00;99117.81;1695814;82;20998;-66
2022/06/09 12:50:59;;;;;;;0.23;0.23;;;;;;;29.39;100.00;99121.97;1687523;83;21216;-65
2022/06/09 12:53:37;;;;;;;0.50;0.30;;;;;;;29.40;100.00;99124.53;1676442;83;21117;-64
2022/06/09 12:56:25;;;;;;;1.02;0.30;;;;;;;29.34;100.00;99122.05;1744919;79;21484;-62
2022/06/09 12:58:52;;;;;;;0.30;0.20;;;;;;;29.32;100.00;99123.31;1747176;79;21101;-66
2022/06/09 13:01:26;;;;;;;0.30;0.28;;;;;;;29.32;100.00;99120.54;1746397;80;21106;-64